createdAt,value
2023-03-26T00:01:46.921Z,4.05
2023-03-26T00:04:19.791Z,3.50
2023-03-26T00:06:49.492Z,3.38
2023-03-26T00:09:18.129Z,2.88
2023-03-26T00:11:47.452Z,3.30
2023-03-26T00:14:18.214Z,3.20
2023-03-26T00:16:47.496Z,2.95
2023-03-26T00:21:46.167Z,2.83
2023-03-26T00:24:16.282Z,4.10
2023-03-26T00:26:48.923Z,3.08
2023-03-26T00:29:16.955Z,3.67
2023-03-26T00:31:46.376Z,2.33
2023-03-26T00:36:46.920Z,3.88
2023-03-26T00:39:18.150Z,3.58
2023-03-26T00:41:46.364Z,3.47
2023-03-26T00:44:14.629Z,4.95
2023-03-26T00:46:43.488Z,5.00
2023-03-26T00:49:14.883Z,5.07
2023-03-26T00:51:45.472Z,5.72
2023-03-26T00:56:41.671Z,5.05
2023-03-26T00:59:10.758Z,5.53
2023-03-26T01:01:39.799Z,5.47
2023-03-26T01:04:28.526Z,6.20
2023-03-26T01:07:01.637Z,6.87
2023-03-26T01:09:35.178Z,6.35
2023-03-26T01:12:06.639Z,6.38
2023-03-26T01:14:35.584Z,6.07
2023-03-26T01:17:06.042Z,6.07
2023-03-26T01:19:41.821Z,5.47
2023-03-26T01:22:14.690Z,6.15
2023-03-26T01:24:47.614Z,5.65
2023-03-26T01:27:33.667Z,6.00
2023-03-26T01:30:12.017Z,6.57
2023-03-26T01:32:51.338Z,6.00
2023-03-26T01:35:30.675Z,5.95
2023-03-26T01:38:10.899Z,4.93
2023-03-26T01:40:47.427Z,5.53
2023-03-26T01:43:24.873Z,6.28
2023-03-26T01:45:55.215Z,6.07
2023-03-26T01:48:30.707Z,6.13
2023-03-26T01:50:59.611Z,6.53
2023-03-26T01:53:28.152Z,5.63
2023-03-26T01:56:07.635Z,5.87
2023-03-26T01:58:41.198Z,6.15
2023-03-26T02:01:25.455Z,6.05
2023-03-26T02:04:17.188Z,6.10
2023-03-26T02:06:53.098Z,5.63
2023-03-26T02:09:26.062Z,6.03
2023-03-26T02:11:57.238Z,6.57
2023-03-26T02:14:26.122Z,6.00
2023-03-26T02:16:54.041Z,5.95
2023-03-26T02:19:25.040Z,6.20
2023-03-26T02:21:53.070Z,6.13
2023-03-26T02:24:22.076Z,6.18
2023-03-26T02:26:58.574Z,7.07
2023-03-26T02:29:27.705Z,6.75
2023-03-26T02:31:55.739Z,7.07
2023-03-26T02:34:24.752Z,7.10
2023-03-26T02:36:54.729Z,6.70
2023-03-26T02:39:23.398Z,6.60
2023-03-26T02:42:07.254Z,6.22
2023-03-26T02:44:41.014Z,5.90
2023-03-26T02:47:30.916Z,5.75
2023-03-26T02:50:17.650Z,6.18
2023-03-26T02:53:05.858Z,6.47
2023-03-26T02:55:37.972Z,6.25
2023-03-26T02:58:08.341Z,6.30
2023-03-26T03:00:38.515Z,6.38
2023-03-26T03:03:28.953Z,6.50
2023-03-26T03:05:58.111Z,5.22
2023-03-26T03:08:39.296Z,5.80
2023-03-26T03:11:36.225Z,4.97
2023-03-26T03:14:08.781Z,5.65
2023-03-26T03:16:37.437Z,5.60
2023-03-26T03:19:11.173Z,6.38
2023-03-26T03:21:41.287Z,6.00
2023-03-26T03:24:14.300Z,5.53
2023-03-26T03:26:47.760Z,6.88
2023-03-26T03:29:38.403Z,6.25
2023-03-26T03:32:27.674Z,6.22
2023-03-26T03:35:01.711Z,7.25
2023-03-26T03:37:30.688Z,7.15
2023-03-26T03:39:59.536Z,7.50
2023-03-26T03:42:31.867Z,8.77
2023-03-26T03:45:04.654Z,6.95
2023-03-26T03:48:06.887Z,6.82
2023-03-26T03:50:40.808Z,8.27
2023-03-26T03:53:22.322Z,9.25
2023-03-26T03:55:54.061Z,8.50
2023-03-26T03:58:31.609Z,9.45
2023-03-26T04:01:11.167Z,9.93
2023-03-26T04:03:59.604Z,10.27
2023-03-26T04:06:40.214Z,11.82
2023-03-26T04:09:11.236Z,11.65
2023-03-26T04:11:40.529Z,10.30
2023-03-26T04:14:32.642Z,12.13
2023-03-26T04:17:05.417Z,12.35
2023-03-26T04:19:37.572Z,15.23
2023-03-26T04:22:09.460Z,13.25
2023-03-26T04:24:46.682Z,14.38
2023-03-26T04:27:36.841Z,13.98
2023-03-26T04:30:36.541Z,14.95
2023-03-26T04:33:17.797Z,16.13
2023-03-26T04:35:48.732Z,16.73
2023-03-26T04:38:18.717Z,14.88
2023-03-26T04:40:51.456Z,15.70
2023-03-26T04:43:42.397Z,17.05
2023-03-26T04:46:24.061Z,15.10
2023-03-26T04:49:03.396Z,16.08
2023-03-26T04:54:21.639Z,17.27
2023-03-26T04:57:00.412Z,16.50
2023-03-26T04:59:34.765Z,17.42
2023-03-26T05:02:10.049Z,17.05
2023-03-26T05:04:57.171Z,16.80
2023-03-26T05:07:30.188Z,17.10
2023-03-26T05:10:03.365Z,16.95
2023-03-26T05:13:04.253Z,17.58
2023-03-26T05:15:36.312Z,17.77
2023-03-26T05:18:11.628Z,19.88
2023-03-26T05:20:47.017Z,18.42
2023-03-26T05:23:15.769Z,18.98
2023-03-26T05:25:47.349Z,19.65
2023-03-26T05:28:24.876Z,21.10
2023-03-26T05:30:59.299Z,20.25
2023-03-26T05:33:32.642Z,18.48
2023-03-26T05:36:09.338Z,18.55
2023-03-26T05:38:57.990Z,14.85
2023-03-26T05:41:49.143Z,16.45
2023-03-26T05:44:19.468Z,14.43
2023-03-26T05:46:47.512Z,16.17
2023-03-26T05:49:22.393Z,15.23
2023-03-26T05:51:53.735Z,16.50
2023-03-26T05:54:53.130Z,13.95
2023-03-26T05:57:40.236Z,15.25
2023-03-26T06:00:29.549Z,13.18
2023-03-26T06:02:58.891Z,13.70
2023-03-26T06:05:50.429Z,13.88
2023-03-26T06:08:23.801Z,14.05
2023-03-26T06:10:59.884Z,14.00
2023-03-26T06:13:29.408Z,11.98
2023-03-26T06:15:58.944Z,13.60
2023-03-26T06:18:36.437Z,13.50
2023-03-26T06:21:25.381Z,13.10
2023-03-26T06:24:00.347Z,11.73
2023-03-26T06:26:47.925Z,10.98
2023-03-26T06:29:34.097Z,10.40
2023-03-26T06:32:26.963Z,11.32
2023-03-26T06:35:01.410Z,10.45
2023-03-26T06:37:29.828Z,8.30
2023-03-26T06:40:03.851Z,9.32
2023-03-26T06:43:08.302Z,6.53
2023-03-26T06:45:59.037Z,8.00
2023-03-26T06:48:33.282Z,7.93
2023-03-26T06:51:22.656Z,7.20
2023-03-26T06:54:23.039Z,7.28
2023-03-26T06:57:00.318Z,6.28
2023-03-26T06:59:37.298Z,6.30
2023-03-26T07:02:25.734Z,6.60
2023-03-26T07:05:13.057Z,7.22
2023-03-26T07:08:00.627Z,6.30
2023-03-26T07:10:48.244Z,7.07
2023-03-26T07:13:21.982Z,6.32
2023-03-26T07:16:09.102Z,6.80
2023-03-26T07:18:55.755Z,6.65
2023-03-26T07:21:28.318Z,6.22
2023-03-26T07:23:57.769Z,7.83
2023-03-26T07:26:57.377Z,8.90
2023-03-26T07:29:39.152Z,8.02
2023-03-26T07:32:29.856Z,7.75
2023-03-26T07:35:24.720Z,7.80
2023-03-26T07:38:27.420Z,8.18
2023-03-26T07:41:16.015Z,8.98
2023-03-26T07:44:27.634Z,6.93
2023-03-26T07:47:26.368Z,7.80
2023-03-26T07:50:18.316Z,7.00
2023-03-26T07:53:07.140Z,8.10
2023-03-26T07:56:01.450Z,7.68
2023-03-26T07:59:20.797Z,7.00
2023-03-26T08:02:44.277Z,8.13
2023-03-26T08:05:33.906Z,8.18
2023-03-26T08:08:16.609Z,8.75
2023-03-26T08:11:13.927Z,7.32
2023-03-26T08:14:03.583Z,7.82
2023-03-26T08:16:38.172Z,7.47
2023-03-26T08:19:17.313Z,9.02
2023-03-26T08:21:51.633Z,8.00
2023-03-26T08:24:23.910Z,9.90
2023-03-26T08:27:00.597Z,8.75
2023-03-26T08:29:39.034Z,9.02
2023-03-26T08:32:14.327Z,8.95
2023-03-26T08:34:42.304Z,9.60
2023-03-26T08:37:11.663Z,11.40
2023-03-26T08:39:42.418Z,10.20
2023-03-26T08:42:38.177Z,9.90
2023-03-26T08:45:33.245Z,10.05
2023-03-26T08:48:47.084Z,9.75
2023-03-26T08:51:54.892Z,9.77
2023-03-26T08:54:49.481Z,9.82
2023-03-26T08:57:55.258Z,10.45
2023-03-26T09:00:59.620Z,10.73
2023-03-26T09:03:47.840Z,10.93
2023-03-26T09:06:34.127Z,11.45
2023-03-26T09:09:38.342Z,11.70
2023-03-26T09:12:56.993Z,10.95
2023-03-26T09:15:48.008Z,11.10
2023-03-26T09:18:40.577Z,10.60
2023-03-26T09:21:37.254Z,12.48
2023-03-26T09:24:28.385Z,11.50
2023-03-26T09:27:08.884Z,11.77
2023-03-26T09:30:15.588Z,9.98
2023-03-26T09:33:15.190Z,10.43
2023-03-26T09:36:19.274Z,11.13
2023-03-26T09:38:55.380Z,11.65
2023-03-26T09:41:39.337Z,11.55
2023-03-26T09:44:52.134Z,10.60
2023-03-26T09:47:51.670Z,11.32
2023-03-26T09:53:10.282Z,9.85
2023-03-26T09:55:51.422Z,9.98
2023-03-26T09:58:42.541Z,10.75
2023-03-26T10:01:21.129Z,11.32
2023-03-26T10:04:01.781Z,11.35
2023-03-26T10:06:46.409Z,10.32
2023-03-26T10:09:35.335Z,10.23
2023-03-26T10:12:10.828Z,11.57
2023-03-26T10:14:41.962Z,11.80
2023-03-26T10:17:21.279Z,10.73
2023-03-26T10:19:58.388Z,10.23
2023-03-26T10:22:41.107Z,10.13
2023-03-26T10:25:22.438Z,9.35
2023-03-26T10:27:57.495Z,9.82
2023-03-26T10:30:45.164Z,9.60
2023-03-26T10:33:16.163Z,8.73
2023-03-26T10:35:48.453Z,8.00
2023-03-26T10:38:25.094Z,9.20
2023-03-26T10:40:59.671Z,7.68
2023-03-26T10:43:54.684Z,8.38
2023-03-26T10:46:36.761Z,7.63
2023-03-26T10:49:17.192Z,8.70
2023-03-26T10:51:50.391Z,8.07
2023-03-26T10:54:27.887Z,8.40
2023-03-26T10:56:56.584Z,7.55
2023-03-26T10:59:27.437Z,7.90
2023-03-26T11:02:03.666Z,7.80
2023-03-26T11:04:35.660Z,7.70
2023-03-26T11:07:09.153Z,7.88
2023-03-26T11:09:41.588Z,7.85
2023-03-26T11:12:26.339Z,9.18
2023-03-26T11:15:00.407Z,7.72
2023-03-26T11:17:39.588Z,7.88
2023-03-26T11:20:11.617Z,6.97
2023-03-26T11:22:44.262Z,8.13
2023-03-26T11:25:30.699Z,8.57
2023-03-26T11:28:10.538Z,7.30
2023-03-26T11:30:42.772Z,6.60
2023-03-26T11:33:12.865Z,7.10
2023-03-26T11:35:42.795Z,7.93
2023-03-26T11:38:15.218Z,7.38
2023-03-26T11:40:46.750Z,6.28
2023-03-26T11:43:26.439Z,6.18
2023-03-26T11:45:54.820Z,7.07
2023-03-26T11:48:25.111Z,6.90
2023-03-26T11:50:57.421Z,6.68
2023-03-26T11:53:29.075Z,6.03
2023-03-26T11:56:00.326Z,5.80
2023-03-26T11:58:32.010Z,7.32
2023-03-26T12:01:00.977Z,7.22
2023-03-26T12:03:30.756Z,7.28
2023-03-26T12:05:59.511Z,7.50
2023-03-26T12:08:33.057Z,6.68
2023-03-26T12:11:09.347Z,6.00
2023-03-26T12:13:42.314Z,5.95
2023-03-26T12:16:11.878Z,5.72
2023-03-26T12:21:11.052Z,5.95
2023-03-26T12:23:51.696Z,6.55
2023-03-26T12:26:21.153Z,6.05
2023-03-26T12:28:51.365Z,6.97
2023-03-26T12:31:20.742Z,6.47
2023-03-26T12:34:05.292Z,7.43
2023-03-26T12:36:34.055Z,5.85
2023-03-26T12:40:07.305Z,6.57
2023-03-26T12:44:49.205Z,5.72
2023-03-26T12:45:17.326Z,5.95
2023-03-26T12:47:55.708Z,6.03
2023-03-26T12:50:35.942Z,6.78
2023-03-26T12:53:19.218Z,6.95
2023-03-26T12:55:53.880Z,5.88
2023-03-26T12:58:30.115Z,5.68
2023-03-26T13:01:03.156Z,4.13
2023-03-26T13:03:37.872Z,3.10
2023-03-26T13:06:14.395Z,2.55
2023-03-26T13:08:53.337Z,2.60
2023-03-26T13:11:28.101Z,2.60
2023-03-26T13:14:06.224Z,2.90
2023-03-26T13:16:43.138Z,2.67
2023-03-26T13:19:13.954Z,2.40
2023-03-26T13:21:50.750Z,2.88
2023-03-26T13:24:27.049Z,4.25
2023-03-26T13:27:02.673Z,4.43
2023-03-26T13:29:36.482Z,4.85
2023-03-26T13:32:14.356Z,4.70
2023-03-26T13:34:56.142Z,2.55
2023-03-26T13:37:27.590Z,2.67
2023-03-26T13:40:01.780Z,2.35
2023-03-26T13:42:37.865Z,4.90
2023-03-26T13:45:11.517Z,2.72
2023-03-26T13:47:45.801Z,2.00
2023-03-26T13:50:20.361Z,1.80
2023-03-26T13:52:52.274Z,2.17
2023-03-26T13:55:23.590Z,4.43
2023-03-26T13:57:55.862Z,3.90
2023-03-26T14:00:28.504Z,2.40
2023-03-26T14:02:59.202Z,2.13
2023-03-26T14:05:29.770Z,4.18
2023-03-26T14:08:02.242Z,2.90
2023-03-26T14:10:34.740Z,2.08
2023-03-26T14:13:03.878Z,1.63
2023-03-26T14:15:32.734Z,1.50
2023-03-26T14:20:57.536Z,1.35
2023-03-26T14:23:48.047Z,1.58
2023-03-26T14:26:21.907Z,1.42
2023-03-26T14:28:58.980Z,1.95
2023-03-26T14:31:29.140Z,1.80
2023-03-26T14:34:07.599Z,2.10
2023-03-26T14:36:47.752Z,1.80
2023-03-26T14:39:26.928Z,1.95
2023-03-26T14:41:58.378Z,1.88
2023-03-26T14:44:47.685Z,2.75
2023-03-26T14:47:18.483Z,3.70
2023-03-26T14:50:04.550Z,3.63
2023-03-26T14:52:39.480Z,4.15
2023-03-26T14:55:17.363Z,2.92
2023-03-26T14:58:03.950Z,3.40
2023-03-26T15:01:04.351Z,3.60
2023-03-26T15:03:56.532Z,4.63
2023-03-26T15:06:40.410Z,3.15
2023-03-26T15:09:26.071Z,4.55
2023-03-26T15:12:12.269Z,4.95
2023-03-26T15:15:00.429Z,5.55
2023-03-26T15:17:55.331Z,7.05
2023-03-26T15:20:55.766Z,5.78
2023-03-26T15:23:43.307Z,6.05
2023-03-26T15:26:31.004Z,6.05
2023-03-26T15:29:30.517Z,5.95
2023-03-26T15:32:11.998Z,3.83
2023-03-26T15:34:56.148Z,3.75
2023-03-26T15:37:38.775Z,3.95
2023-03-26T15:40:19.476Z,4.30
2023-03-26T15:42:52.629Z,4.07
2023-03-26T15:45:31.227Z,3.92
2023-03-26T15:48:26.845Z,4.07
2023-03-26T15:50:58.256Z,3.53
2023-03-26T15:53:35.640Z,9.68
2023-03-26T15:56:22.551Z,4.05
2023-03-26T15:58:53.471Z,3.92
2023-03-26T16:01:39.519Z,3.60
2023-03-26T16:04:14.762Z,3.30
2023-03-26T16:06:50.524Z,3.10
2023-03-26T16:09:27.016Z,3.90
2023-03-26T16:11:56.101Z,5.15
2023-03-26T16:14:24.952Z,4.28
2023-03-26T16:16:59.651Z,3.97
2023-03-26T16:19:41.149Z,4.82
2023-03-26T16:22:15.149Z,4.28
2023-03-26T16:24:46.532Z,5.05
2023-03-26T16:27:34.561Z,3.80
2023-03-26T16:30:09.466Z,4.22
2023-03-26T16:32:42.268Z,3.72
2023-03-26T16:35:34.425Z,6.13
2023-03-26T16:38:06.205Z,3.20
2023-03-26T16:40:34.740Z,2.88
2023-03-26T16:43:24.705Z,3.67
2023-03-26T16:48:27.371Z,2.72
2023-03-26T16:50:57.867Z,3.33
2023-03-26T16:53:31.083Z,2.40
2023-03-26T16:56:02.845Z,3.53
2023-03-26T16:58:34.870Z,3.25
2023-03-26T17:01:08.711Z,3.97
2023-03-26T17:03:45.420Z,3.50
2023-03-26T17:06:26.410Z,2.83
2023-03-26T17:08:58.034Z,3.30
2023-03-26T17:11:30.365Z,2.95
2023-03-26T17:14:05.383Z,2.08
2023-03-26T17:16:34.439Z,1.88
2023-03-26T17:19:08.566Z,2.13
2023-03-26T17:21:46.418Z,2.92
2023-03-26T17:24:19.503Z,2.30
2023-03-26T17:27:04.515Z,2.55
2023-03-26T17:29:39.539Z,2.25
2023-03-26T17:32:12.753Z,1.95
2023-03-26T17:34:55.521Z,1.70
2023-03-26T17:37:49.608Z,1.85
2023-03-26T17:40:36.323Z,1.40
2023-03-26T17:43:06.292Z,1.95
2023-03-26T17:48:06.405Z,2.28
2023-03-26T17:50:41.169Z,2.05
2023-03-26T17:53:17.438Z,2.90
2023-03-26T17:55:46.535Z,2.00
2023-03-26T17:58:27.422Z,2.00
2023-03-26T18:00:59.937Z,1.90
2023-03-26T18:03:31.283Z,1.73
2023-03-26T18:06:06.881Z,2.08
2023-03-26T18:08:43.012Z,1.48
2023-03-26T18:11:25.621Z,2.67
2023-03-26T18:14:17.905Z,2.40
2023-03-26T18:16:48.018Z,2.00
2023-03-26T18:19:19.722Z,1.60
2023-03-26T18:21:50.427Z,1.90
2023-03-26T18:27:09.597Z,2.10
2023-03-26T18:29:43.981Z,2.10
2023-03-26T18:32:22.119Z,1.88
2023-03-26T18:34:53.047Z,1.33
2023-03-26T18:37:23.141Z,2.38
2023-03-26T18:42:24.862Z,1.65
2023-03-26T18:44:54.217Z,1.30
2023-03-26T18:47:31.192Z,1.75
2023-03-26T18:49:59.480Z,1.55
2023-03-26T18:52:29.348Z,1.33
2023-03-26T18:57:26.419Z,1.33
2023-03-26T18:59:55.953Z,1.58
2023-03-26T19:02:26.868Z,1.92
2023-03-26T19:04:56.858Z,1.52
2023-03-26T19:07:26.529Z,1.60
2023-03-26T19:09:57.352Z,1.23
2023-03-26T19:14:57.950Z,1.23
2023-03-26T19:17:28.791Z,1.38
2023-03-26T19:19:57.633Z,1.90
2023-03-26T19:22:26.091Z,1.67
2023-03-26T19:24:58.648Z,1.40
2023-03-26T19:27:27.064Z,1.52
2023-03-26T19:29:54.793Z,1.00
2023-03-26T19:32:29.476Z,2.15
2023-03-26T19:34:59.914Z,1.10
2023-03-26T19:37:29.941Z,1.30
2023-03-26T19:40:07.199Z,2.22
2023-03-26T19:42:42.912Z,1.58
2023-03-26T19:45:15.685Z,1.23
2023-03-26T19:47:54.731Z,1.08
2023-03-26T19:50:34.525Z,1.42
2023-03-26T19:53:15.331Z,1.38
2023-03-26T19:55:55.701Z,1.23
2023-03-26T19:58:26.361Z,2.08
2023-03-26T20:03:25.417Z,1.30
2023-03-26T20:05:54.741Z,1.02
2023-03-26T20:08:26.868Z,1.05
2023-03-26T20:10:59.929Z,1.20
2023-03-26T20:13:27.782Z,1.35
2023-03-26T20:16:05.008Z,1.02
2023-03-26T20:18:34.636Z,0.93
2023-03-26T20:21:02.372Z,0.88
2023-03-26T20:23:30.718Z,1.10
2023-03-26T20:26:00.033Z,1.40
2023-03-26T20:28:28.065Z,1.77
2023-03-26T20:30:56.138Z,0.32
2023-03-26T20:33:25.844Z,1.15
2023-03-26T20:35:53.897Z,1.25
2023-03-26T20:38:32.938Z,0.80
2023-03-26T20:41:10.924Z,0.77
2023-03-26T20:43:38.980Z,1.13
2023-03-26T20:46:06.848Z,1.10
2023-03-26T20:48:35.447Z,0.75
2023-03-26T20:51:03.455Z,1.08
2023-03-26T20:53:31.962Z,1.42
2023-03-26T20:56:00.487Z,1.10
2023-03-26T20:58:30.704Z,1.02
2023-03-26T21:01:01.427Z,0.88
2023-03-26T21:03:29.333Z,1.77
2023-03-26T21:06:00.776Z,1.70
2023-03-26T21:08:35.620Z,1.17
2023-03-26T21:11:04.815Z,1.23
2023-03-26T21:13:38.404Z,1.13
2023-03-26T21:16:07.983Z,1.10
2023-03-26T21:18:36.856Z,1.17
2023-03-26T21:21:20.055Z,1.95
2023-03-26T21:23:57.863Z,1.10
2023-03-26T21:26:30.391Z,1.10
2023-03-26T21:29:00.954Z,1.60
2023-03-26T21:31:34.822Z,2.30
2023-03-26T21:34:03.916Z,1.65
2023-03-26T21:36:32.331Z,1.07
2023-03-26T21:39:01.812Z,1.70
2023-03-26T21:41:35.834Z,1.90
2023-03-26T21:44:05.499Z,1.15
2023-03-26T21:46:33.729Z,1.77
2023-03-26T21:49:01.679Z,1.13
2023-03-26T21:51:30.384Z,2.25
2023-03-26T21:53:58.437Z,0.90
2023-03-26T21:56:37.212Z,1.20
2023-03-26T21:59:11.859Z,1.30
2023-03-26T22:01:43.507Z,1.85
2023-03-26T22:04:14.376Z,1.33
2023-03-26T22:06:44.938Z,1.40
2023-03-26T22:09:13.942Z,1.40
2023-03-26T22:11:45.322Z,1.35
2023-03-26T22:14:14.427Z,1.27
2023-03-26T22:16:42.657Z,0.68
2023-03-26T22:19:11.033Z,1.10
2023-03-26T22:21:39.184Z,1.50
2023-03-26T22:24:07.573Z,1.20
2023-03-26T22:26:37.427Z,1.03
2023-03-26T22:29:05.999Z,1.10
2023-03-26T22:31:36.118Z,1.13
2023-03-26T22:34:05.322Z,1.23
2023-03-26T22:36:33.185Z,1.13
2023-03-26T22:39:01.796Z,1.42
2023-03-26T22:41:30.583Z,1.27
2023-03-26T22:44:09.354Z,1.30
2023-03-26T22:49:35.946Z,0.90
2023-03-26T22:52:04.219Z,1.08
2023-03-26T22:54:32.055Z,1.20
2023-03-26T22:56:59.854Z,1.10
2023-03-26T22:59:28.317Z,1.13
2023-03-26T23:01:57.884Z,0.98
2023-03-26T23:04:31.228Z,1.65
2023-03-26T23:07:00.407Z,1.35
2023-03-26T23:09:28.145Z,2.55
2023-03-26T23:11:56.460Z,1.27
2023-03-26T23:14:24.332Z,0.70
2023-03-26T23:16:52.112Z,1.13
2023-03-26T23:19:21.181Z,0.80
2023-03-26T23:21:49.808Z,1.27
2023-03-26T23:24:17.518Z,1.20
2023-03-26T23:26:50.582Z,1.40
2023-03-26T23:29:19.618Z,1.48
2023-03-26T23:31:47.722Z,1.00
2023-03-26T23:34:17.022Z,1.35
2023-03-26T23:36:46.665Z,1.30
2023-03-26T23:39:34.608Z,1.50
2023-03-26T23:42:02.824Z,1.45
2023-03-26T23:44:32.224Z,1.00
2023-03-26T23:47:00.459Z,0.95
2023-03-26T23:49:28.248Z,1.33
2023-03-26T23:51:57.352Z,1.13
2023-03-26T23:54:25.595Z,1.17
2023-03-26T23:56:55.640Z,1.08
2023-03-26T23:59:23.544Z,1.30
